sensor_id;sensor_type;location;lat;lon;timestamp;pressure;altitude;pressure_sealevel;temperature;humidity
22653;BME280;11493;43.344;26.226;2022-12-07T00:01:26;99390.19;;;5.14;100.00
22653;BME280;11493;43.344;26.226;2022-12-07T00:03:56;99389.34;;;5.13;100.00
22653;BME280;11493;43.344;26.226;2022-12-07T00:06:27;99380.09;;;5.14;100.00
22653;BME280;11493;43.344;26.226;2022-12-07T00:08:54;99362.91;;;5.09;100.00
22653;BME280;11493;43.344;26.226;2022-12-07T00:11:22;99385.53;;;5.19;100.00
22653;BME280;11493;43.344;26.226;2022-12-07T00:13:54;99381.13;;;5.23;100.00
22653;BME280;11493;43.344;26.226;2022-12-07T00:16:25;99385.19;;;5.26;100.00
22653;BME280;11493;43.344;26.226;2022-12-07T00:18:53;99398.25;;;5.34;100.00
22653;BME280;11493;43.344;26.226;2022-12-07T00:21:23;99399.63;;;5.37;100.00
22653;BME280;11493;43.344;26.226;2022-12-07T00:23:51;99397.22;;;5.25;100.00
22653;BME280;11493;43.344;26.226;2022-12-07T00:26:25;99406.19;;;5.25;100.00
22653;BME280;11493;43.344;26.226;2022-12-07T00:28:54;99411.38;;;5.32;100.00
22653;BME280;11493;43.344;26.226;2022-12-07T00:31:25;99406.19;;;5.31;100.00
22653;BME280;11493;43.344;26.226;2022-12-07T00:33:52;99403.47;;;5.31;100.00
22653;BME280;11493;43.344;26.226;2022-12-07T00:36:22;99404.00;;;5.33;100.00
22653;BME280;11493;43.344;26.226;2022-12-07T00:38:53;99405.94;;;5.27;100.00
22653;BME280;11493;43.344;26.226;2022-12-07T00:41:23;99423.91;;;5.33;100.00
22653;BME280;11493;43.344;26.226;2022-12-07T00:43:51;99415.75;;;5.28;100.00
22653;BME280;11493;43.344;26.226;2022-12-07T00:46:19;99416.56;;;5.28;100.00
22653;BME280;11493;43.344;26.226;2022-12-07T00:48:48;99414.94;;;5.27;100.00
22653;BME280;11493;43.344;26.226;2022-12-07T00:51:17;99406.47;;;5.29;100.00
22653;BME280;11493;43.344;26.226;2022-12-07T00:53:44;99420.09;;;5.34;100.00
22653;BME280;11493;43.344;26.226;2022-12-07T00:56:17;99393.16;;;5.17;100.00
22653;BME280;11493;43.344;26.226;2022-12-07T00:58:49;99401.88;;;5.19;100.00
22653;BME280;11493;43.344;26.226;2022-12-07T01:01:17;99423.63;;;5.35;100.00
22653;BME280;11493;43.344;26.226;2022-12-07T01:03:44;99431.28;;;5.33;100.00
22653;BME280;11493;43.344;26.226;2022-12-07T01:06:15;99421.19;;;5.28;100.00
22653;BME280;11493;43.344;26.226;2022-12-07T01:08:42;99429.63;;;5.37;100.00
22653;BME280;11493;43.344;26.226;2022-12-07T01:11:13;99424.19;;;5.37;100.00
22653;BME280;11493;43.344;26.226;2022-12-07T01:13:41;99421.72;;;5.35;100.00
22653;BME280;11493;43.344;26.226;2022-12-07T01:16:12;99418.47;;;5.33;100.00
22653;BME280;11493;43.344;26.226;2022-12-07T01:18:40;99426.38;;;5.35;100.00
22653;BME280;11493;43.344;26.226;2022-12-07T01:21:14;99356.16;;;4.91;100.00
22653;BME280;11493;43.344;26.226;2022-12-07T01:23:41;99421.19;;;5.33;100.00
22653;BME280;11493;43.344;26.226;2022-12-07T01:26:13;99411.09;;;5.28;100.00
22653;BME280;11493;43.344;26.226;2022-12-07T01:28:41;99394.22;;;5.21;100.00
22653;BME280;11493;43.344;26.226;2022-12-07T01:31:13;99403.47;;;5.31;100.00
22653;BME280;11493;43.344;26.226;2022-12-07T01:33:46;99392.00;;;5.28;100.00
22653;BME280;11493;43.344;26.226;2022-12-07T01:38:44;99390.38;;;5.22;100.00
22653;BME280;11493;43.344;26.226;2022-12-07T01:41:12;99388.25;;;5.19;100.00
22653;BME280;11493;43.344;26.226;2022-12-07T01:44:18;99391.47;;;5.21;100.00
22653;BME280;11493;43.344;26.226;2022-12-07T01:46:58;99382.81;;;5.14;100.00
22653;BME280;11493;43.344;26.226;2022-12-07T01:49:37;99391.56;;;5.06;100.00
22653;BME280;11493;43.344;26.226;2022-12-07T01:54:43;99383.41;;;5.01;100.00
22653;BME280;11493;43.344;26.226;2022-12-07T01:57:12;99382.84;;;5.04;100.00
22653;BME280;11493;43.344;26.226;2022-12-07T01:59:42;99383.94;;;5.03;100.00
22653;BME280;11493;43.344;26.226;2022-12-07T02:02:16;99381.22;;;5.03;100.00
22653;BME280;11493;43.344;26.226;2022-12-07T02:04:45;99388.84;;;5.01;100.00
22653;BME280;11493;43.344;26.226;2022-12-07T02:07:13;99387.75;;;5.02;100.00
22653;BME280;11493;43.344;26.226;2022-12-07T02:09:41;99388.84;;;5.06;100.00
22653;BME280;11493;43.344;26.226;2022-12-07T02:12:08;99390.19;;;5.09;100.00
22653;BME280;11493;43.344;26.226;2022-12-07T02:14:36;99385.25;;;5.16;100.00
22653;BME280;11493;43.344;26.226;2022-12-07T02:17:37;99387.72;;;5.17;100.00
22653;BME280;11493;43.344;26.226;2022-12-07T02:20:23;99351.25;;;4.88;100.00
22653;BME280;11493;43.344;26.226;2022-12-07T02:28:45;99371.84;;;5.24;100.00
22653;BME280;11493;43.344;26.226;2022-12-07T02:31:17;99342.47;;;5.06;100.00
22653;BME280;11493;43.344;26.226;2022-12-07T02:36:39;99379.19;;;5.29;100.00
22653;BME280;11493;43.344;26.226;2022-12-07T02:39:25;99367.47;;;5.23;100.00
22653;BME280;11493;43.344;26.226;2022-12-07T02:41:59;99370.47;;;5.27;100.00
22653;BME280;11493;43.344;26.226;2022-12-07T02:44:28;99371.53;;;5.31;100.00
22653;BME280;11493;43.344;26.226;2022-12-07T02:47:01;99381.63;;;5.36;100.00
22653;BME280;11493;43.344;26.226;2022-12-07T02:49:30;99377.78;;;5.37;100.00
22653;BME280;11493;43.344;26.226;2022-12-07T02:51:58;99373.94;;;5.43;100.00
22653;BME280;11493;43.344;26.226;2022-12-07T02:54:25;99371.78;;;5.40;100.00
22653;BME280;11493;43.344;26.226;2022-12-07T03:11:09;99359.41;;;5.57;100.00
22653;BME280;11493;43.344;26.226;2022-12-07T03:16:28;99354.78;;;5.53;100.00
22653;BME280;11493;43.344;26.226;2022-12-07T03:19:04;99350.41;;;5.57;100.00
22653;BME280;11493;43.344;26.226;2022-12-07T03:21:37;99355.31;;;5.60;100.00
22653;BME280;11493;43.344;26.226;2022-12-07T03:24:09;99350.69;;;5.55;100.00
22653;BME280;11493;43.344;26.226;2022-12-07T03:26:42;99356.16;;;5.55;100.00
22653;BME280;11493;43.344;26.226;2022-12-07T03:29:18;99356.16;;;5.55;100.00
22653;BME280;11493;43.344;26.226;2022-12-07T03:31:54;99337.13;;;5.40;100.00
22653;BME280;11493;43.344;26.226;2022-12-07T03:34:34;99353.97;;;5.52;100.00
22653;BME280;11493;43.344;26.226;2022-12-07T03:37:08;99331.41;;;5.37;100.00
22653;BME280;11493;43.344;26.226;2022-12-07T03:39:39;99356.66;;;5.63;100.00
22653;BME280;11493;43.344;26.226;2022-12-07T03:42:12;99347.16;;;5.55;100.00
22653;BME280;11493;43.344;26.226;2022-12-07T03:44:40;99344.44;;;5.50;100.00
22653;BME280;11493;43.344;26.226;2022-12-07T03:49:49;99333.00;;;5.48;100.00
22653;BME280;11493;43.344;26.226;2022-12-07T03:55:22;99351.56;;;5.46;100.00
22653;BME280;11493;43.344;26.226;2022-12-07T03:57:54;99348.84;;;5.41;100.00
22653;BME280;11493;43.344;26.226;2022-12-07T04:00:22;99352.13;;;5.43;100.00
22653;BME280;11493;43.344;26.226;2022-12-07T04:02:52;99355.94;;;5.42;100.00
22653;BME280;11493;43.344;26.226;2022-12-07T04:05:20;99342.56;;;5.40;100.00
22653;BME280;11493;43.344;26.226;2022-12-07T04:07:47;99330.88;;;5.35;100.00
22653;BME280;11493;43.344;26.226;2022-12-07T04:10:14;99333.56;;;5.40;100.00
22653;BME280;11493;43.344;26.226;2022-12-07T04:12:41;99337.91;;;5.46;100.00
22653;BME280;11493;43.344;26.226;2022-12-07T04:15:09;99330.53;;;5.46;100.00
22653;BME280;11493;43.344;26.226;2022-12-07T04:17:37;99336.28;;;5.45;100.00
22653;BME280;11493;43.344;26.226;2022-12-07T04:20:05;99343.88;;;5.53;100.00
22653;BME280;11493;43.344;26.226;2022-12-07T04:22:33;99336.75;;;5.57;100.00
22653;BME280;11493;43.344;26.226;2022-12-07T04:25:00;99325.03;;;5.56;100.00
22653;BME280;11493;43.344;26.226;2022-12-07T04:27:27;99317.66;;;5.57;100.00
22653;BME280;11493;43.344;26.226;2022-12-07T04:29:54;99314.13;;;5.56;100.00
22653;BME280;11493;43.344;26.226;2022-12-07T04:32:23;99327.44;;;5.63;100.00
22653;BME280;11493;43.344;26.226;2022-12-07T04:34:50;99317.94;;;5.55;100.00
22653;BME280;11493;43.344;26.226;2022-12-07T04:37:22;99310.59;;;5.51;100.00
22653;BME280;11493;43.344;26.226;2022-12-07T04:39:49;99328.53;;;5.62;100.00
22653;BME280;11493;43.344;26.226;2022-12-07T04:42:16;99313.84;;;5.58;100.00
22653;BME280;11493;43.344;26.226;2022-12-07T04:44:43;99308.38;;;5.58;100.00
22653;BME280;11493;43.344;26.226;2022-12-07T04:47:11;99320.34;;;5.62;100.00
22653;BME280;11493;43.344;26.226;2022-12-07T04:49:38;99314.63;;;5.64;100.00
22653;BME280;11493;43.344;26.226;2022-12-07T04:52:05;99329.38;;;5.57;100.00
22653;BME280;11493;43.344;26.226;2022-12-07T04:54:32;99342.72;;;5.64;100.00
22653;BME280;11493;43.344;26.226;2022-12-07T04:57:00;99322.53;;;5.65;100.00
22653;BME280;11493;43.344;26.226;2022-12-07T04:59:27;99335.59;;;5.68;100.00
22653;BME280;11493;43.344;26.226;2022-12-07T05:01:54;99329.94;;;5.59;100.00
22653;BME280;11493;43.344;26.226;2022-12-07T05:04:21;99338.34;;;5.68;100.00
22653;BME280;11493;43.344;26.226;2022-12-07T05:06:48;99338.88;;;5.70;100.00
22653;BME280;11493;43.344;26.226;2022-12-07T05:09:15;99341.63;;;5.65;100.00
22653;BME280;11493;43.344;26.226;2022-12-07T05:11:42;99332.09;;;5.63;100.00
22653;BME280;11493;43.344;26.226;2022-12-07T05:16:37;99339.16;;;5.69;100.00
22653;BME280;11493;43.344;26.226;2022-12-07T05:19:05;99332.34;;;5.66;100.00
22653;BME280;11493;43.344;26.226;2022-12-07T05:21:32;99328.22;;;5.69;100.00
22653;BME280;11493;43.344;26.226;2022-12-07T05:23:59;99327.91;;;5.75;100.00
22653;BME280;11493;43.344;26.226;2022-12-07T05:26:27;99317.28;;;5.74;100.00
22653;BME280;11493;43.344;26.226;2022-12-07T05:28:55;99328.44;;;5.77;100.00
22653;BME280;11493;43.344;26.226;2022-12-07T05:31:23;99322.19;;;5.77;100.00
22653;BME280;11493;43.344;26.226;2022-12-07T05:33:51;99337.19;;;5.79;100.00
22653;BME280;11493;43.344;26.226;2022-12-07T05:36:28;99329.53;;;5.81;100.00
22653;BME280;11493;43.344;26.226;2022-12-07T05:38:58;99333.06;;;5.82;100.00
22653;BME280;11493;43.344;26.226;2022-12-07T05:41:27;99321.31;;;5.81;100.00
22653;BME280;11493;43.344;26.226;2022-12-07T05:44:13;99338.53;;;5.82;100.00
22653;BME280;11493;43.344;26.226;2022-12-07T05:46:41;99334.44;;;5.79;100.00
22653;BME280;11493;43.344;26.226;2022-12-07T05:49:08;99325.16;;;5.80;100.00
22653;BME280;11493;43.344;26.226;2022-12-07T05:51:35;99342.84;;;5.88;100.00
22653;BME280;11493;43.344;26.226;2022-12-07T05:54:03;99344.22;;;5.85;100.00
22653;BME280;11493;43.344;26.226;2022-12-07T05:56:33;99342.59;;;5.84;100.00
22653;BME280;11493;43.344;26.226;2022-12-07T05:59:00;99338.78;;;5.85;100.00
22653;BME280;11493;43.344;26.226;2022-12-07T06:01:47;99348.59;;;5.91;100.00
22653;BME280;11493;43.344;26.226;2022-12-07T06:04:14;99352.38;;;5.96;100.00
22653;BME280;11493;43.344;26.226;2022-12-07T06:06:41;99354.00;;;5.97;100.00
22653;BME280;11493;43.344;26.226;2022-12-07T06:09:09;99352.06;;;5.97;100.00
22653;BME280;11493;43.344;26.226;2022-12-07T06:11:43;99347.22;;;5.94;100.00
22653;BME280;11493;43.344;26.226;2022-12-07T06:14:32;99360.81;;;5.99;100.00
22653;BME280;11493;43.344;26.226;2022-12-07T06:17:02;99362.41;;;6.05;100.00
22653;BME280;11493;43.344;26.226;2022-12-07T06:19:29;99365.09;;;6.10;100.00
22653;BME280;11493;43.344;26.226;2022-12-07T06:21:57;99371.63;;;6.14;100.00
22653;BME280;11493;43.344;26.226;2022-12-07T06:24:24;99356.34;;;6.13;100.00
22653;BME280;11493;43.344;26.226;2022-12-07T06:26:51;99361.56;;;6.10;100.00
22653;BME280;11493;43.344;26.226;2022-12-07T06:29:19;99349.00;;;6.09;100.00
22653;BME280;11493;43.344;26.226;2022-12-07T06:31:49;99354.94;;;6.16;100.00
22653;BME280;11493;43.344;26.226;2022-12-07T06:34:26;99354.94;;;6.16;100.00
22653;BME280;11493;43.344;26.226;2022-12-07T06:36:54;99363.91;;;6.21;100.00
22653;BME280;11493;43.344;26.226;2022-12-07T06:39:24;99359.81;;;6.24;100.00
22653;BME280;11493;43.344;26.226;2022-12-07T06:41:53;99366.41;;;6.18;100.00
22653;BME280;11493;43.344;26.226;2022-12-07T06:44:21;99337.25;;;6.08;100.00
22653;BME280;11493;43.344;26.226;2022-12-07T06:46:49;99362.53;;;6.24;100.00
22653;BME280;11493;43.344;26.226;2022-12-07T06:49:19;99353.72;;;6.32;100.00
22653;BME280;11493;43.344;26.226;2022-12-07T06:51:54;99348.25;;;6.32;100.00
22653;BME280;11493;43.344;26.226;2022-12-07T06:54:21;99356.94;;;6.39;100.00
22653;BME280;11493;43.344;26.226;2022-12-07T06:56:49;99357.38;;;6.51;100.00
22653;BME280;11493;43.344;26.226;2022-12-07T06:59:17;99354.13;;;6.49;100.00
22653;BME280;11493;43.344;26.226;2022-12-07T07:01:44;99351.41;;;6.49;100.00
22653;BME280;11493;43.344;26.226;2022-12-07T07:04:11;99341.00;;;6.51;100.00
22653;BME280;11493;43.344;26.226;2022-12-07T07:06:39;99336.28;;;6.57;100.00
22653;BME280;11493;43.344;26.226;2022-12-07T07:09:06;99349.34;;;6.65;100.00
22653;BME280;11493;43.344;26.226;2022-12-07T07:11:33;99332.84;;;6.70;100.00
22653;BME280;11493;43.344;26.226;2022-12-07T07:14:00;99340.41;;;6.78;100.00
22653;BME280;11493;43.344;26.226;2022-12-07T07:16:30;99343.91;;;6.84;100.00
22653;BME280;11493;43.344;26.226;2022-12-07T07:18:59;99329.47;;;6.78;100.00
22653;BME280;11493;43.344;26.226;2022-12-07T07:21:26;99338.56;;;6.98;100.00
22653;BME280;11493;43.344;26.226;2022-12-07T07:23:53;99348.13;;;7.00;100.00
22653;BME280;11493;43.344;26.226;2022-12-07T07:26:20;99354.06;;;7.07;100.00
22653;BME280;11493;43.344;26.226;2022-12-07T07:28:49;99356.69;;;7.17;100.00
22653;BME280;11493;43.344;26.226;2022-12-07T07:31:16;99344.63;;;7.18;100.00
22653;BME280;11493;43.344;26.226;2022-12-07T07:33:48;99347.31;;;7.23;100.00
22653;BME280;11493;43.344;26.226;2022-12-07T07:36:15;99352.91;;;7.13;100.00
22653;BME280;11493;43.344;26.226;2022-12-07T07:38:43;99346.25;;;7.19;100.00
22653;BME280;11493;43.344;26.226;2022-12-07T07:41:10;99351.72;;;7.19;100.00
22653;BME280;11493;43.344;26.226;2022-12-07T07:44:01;99366.53;;;7.18;100.00
22653;BME280;11493;43.344;26.226;2022-12-07T07:46:28;99351.38;;;7.02;100.00
22653;BME280;11493;43.344;26.226;2022-12-07T07:48:56;99358.66;;;7.12;100.00
22653;BME280;11493;43.344;26.226;2022-12-07T07:51:22;99356.38;;;7.19;100.00
22653;BME280;11493;43.344;26.226;2022-12-07T07:53:49;99355.53;;;7.23;100.00
22653;BME280;11493;43.344;26.226;2022-12-07T07:56:17;99350.34;;;7.22;100.00
22653;BME280;11493;43.344;26.226;2022-12-07T07:58:46;99351.66;;;7.24;100.00
22653;BME280;11493;43.344;26.226;2022-12-07T08:01:17;99359.38;;;7.22;100.00
22653;BME280;11493;43.344;26.226;2022-12-07T08:07:40;99334.38;;;7.05;100.00
22653;BME280;11493;43.344;26.226;2022-12-07T08:10:52;99360.94;;;7.29;100.00
22653;BME280;11493;43.344;26.226;2022-12-07T08:13:20;99358.13;;;7.34;100.00
22653;BME280;11493;43.344;26.226;2022-12-07T08:15:55;99354.28;;;7.35;100.00
22653;BME280;11493;43.344;26.226;2022-12-07T08:18:22;99360.22;;;7.42;100.00
22653;BME280;11493;43.344;26.226;2022-12-07T08:20:50;99358.72;;;7.49;100.00
22653;BME280;11493;43.344;26.226;2022-12-07T08:23:17;99351.06;;;7.70;100.00
22653;BME280;11493;43.344;26.226;2022-12-07T08:25:49;99364.59;;;7.80;100.00
22653;BME280;11493;43.344;26.226;2022-12-07T08:28:17;99370.47;;;7.93;100.00
22653;BME280;11493;43.344;26.226;2022-12-07T08:30:45;99362.97;;;7.98;100.00
22653;BME280;11493;43.344;26.226;2022-12-07T08:33:15;99359.19;;;8.13;100.00
22653;BME280;11493;43.344;26.226;2022-12-07T08:35:43;99360.13;;;8.22;100.00
22653;BME280;11493;43.344;26.226;2022-12-07T08:38:14;99352.00;;;8.36;100.00
22653;BME280;11493;43.344;26.226;2022-12-07T08:40:42;99337.28;;;8.13;100.00
22653;BME280;11493;43.344;26.226;2022-12-07T08:43:10;99352.19;;;8.39;100.00
22653;BME280;11493;43.344;26.226;2022-12-07T08:45:40;99358.94;;;8.47;100.00
22653;BME280;11493;43.344;26.226;2022-12-07T08:48:10;99349.03;;;8.65;100.00
22653;BME280;11493;43.344;26.226;2022-12-07T08:50:38;99347.81;;;8.71;100.00
22653;BME280;11493;43.344;26.226;2022-12-07T08:53:15;99322.81;;;8.59;100.00
22653;BME280;11493;43.344;26.226;2022-12-07T08:55:44;99347.84;;;8.84;100.00
22653;BME280;11493;43.344;26.226;2022-12-07T08:58:13;99343.34;;;8.75;100.00
22653;BME280;11493;43.344;26.226;2022-12-07T09:00:42;99342.75;;;8.92;100.00
22653;BME280;11493;43.344;26.226;2022-12-07T09:03:13;99341.53;;;8.98;100.00
22653;BME280;11493;43.344;26.226;2022-12-07T09:05:42;99336.47;;;9.05;100.00
22653;BME280;11493;43.344;26.226;2022-12-07T09:08:09;99338.91;;;9.06;100.00
22653;BME280;11493;43.344;26.226;2022-12-07T09:10:36;99328.94;;;9.10;100.00
22653;BME280;11493;43.344;26.226;2022-12-07T09:13:04;99319.06;;;9.23;100.00
22653;BME280;11493;43.344;26.226;2022-12-07T09:15:34;99324.88;;;9.35;100.00
22653;BME280;11493;43.344;26.226;2022-12-07T09:18:04;99324.03;;;9.48;100.00
22653;BME280;11493;43.344;26.226;2022-12-07T09:20:31;99328.50;;;9.58;100.00
22653;BME280;11493;43.344;26.226;2022-12-07T09:23:00;99326.00;;;9.70;100.00
22653;BME280;11493;43.344;26.226;2022-12-07T09:25:30;99314.28;;;9.78;100.00
22653;BME280;11493;43.344;26.226;2022-12-07T09:27:58;99321.50;;;9.74;100.00
22653;BME280;11493;43.344;26.226;2022-12-07T09:30:27;99312.97;;;9.76;100.00
22653;BME280;11493;43.344;26.226;2022-12-07T09:32:56;99292.91;;;9.75;99.74
22653;BME280;11493;43.344;26.226;2022-12-07T09:35:25;99308.75;;;9.92;99.66
22653;BME280;11493;43.344;26.226;2022-12-07T09:37:53;99292.63;;;9.99;98.71
22653;BME280;11493;43.344;26.226;2022-12-07T09:40:22;99296.94;;;10.14;99.22
22653;BME280;11493;43.344;26.226;2022-12-07T09:42:53;99285.00;;;10.18;99.27
22653;BME280;11493;43.344;26.226;2022-12-07T09:45:27;99284.09;;;10.23;98.55
22653;BME280;11493;43.344;26.226;2022-12-07T09:47:58;99293.31;;;10.05;98.75
22653;BME280;11493;43.344;26.226;2022-12-07T09:50:27;99291.56;;;10.09;98.78
22653;BME280;11493;43.344;26.226;2022-12-07T09:53:09;99287.19;;;10.08;99.30
22653;BME280;11493;43.344;26.226;2022-12-07T09:55:40;99283.31;;;10.09;99.68
22653;BME280;11493;43.344;26.226;2022-12-07T09:58:19;99256.09;;;9.99;98.12
22653;BME280;11493;43.344;26.226;2022-12-07T10:00:52;99269.84;;;10.21;97.11
22653;BME280;11493;43.344;26.226;2022-12-07T10:03:21;99255.72;;;10.14;97.38
22653;BME280;11493;43.344;26.226;2022-12-07T10:05:50;99269.41;;;10.28;97.37
22653;BME280;11493;43.344;26.226;2022-12-07T10:08:18;99257.16;;;10.34;96.97
22653;BME280;11493;43.344;26.226;2022-12-07T10:10:50;99263.59;;;10.29;98.22
22653;BME280;11493;43.344;26.226;2022-12-07T10:13:44;99257.16;;;10.34;98.69
22653;BME280;11493;43.344;26.226;2022-12-07T10:18:53;99240.66;;;10.34;98.48
22653;BME280;11493;43.344;26.226;2022-12-07T10:21:23;99246.50;;;10.41;98.64
22653;BME280;11493;43.344;26.226;2022-12-07T10:29:37;99235.91;;;10.57;97.80
22653;BME280;11493;43.344;26.226;2022-12-07T10:32:29;99220.78;;;10.45;98.39
22653;BME280;11493;43.344;26.226;2022-12-07T10:35:24;99225.84;;;10.52;98.19
22653;BME280;11493;43.344;26.226;2022-12-07T10:37:53;99225.66;;;10.48;98.61
22653;BME280;11493;43.344;26.226;2022-12-07T10:40:32;99226.34;;;10.54;99.03
22653;BME280;11493;43.344;26.226;2022-12-07T10:43:17;99232.16;;;10.52;98.95
22653;BME280;11493;43.344;26.226;2022-12-07T10:48:47;99228.00;;;10.64;97.99
22653;BME280;11493;43.344;26.226;2022-12-07T10:51:42;99182.44;;;10.40;97.84
22653;BME280;11493;43.344;26.226;2022-12-07T10:57:25;99209.16;;;10.88;97.59
22653;BME280;11493;43.344;26.226;2022-12-07T11:02:41;99206.91;;;10.99;96.49
22653;BME280;11493;43.344;26.226;2022-12-07T11:13:33;99189.78;;;11.10;95.22
22653;BME280;11493;43.344;26.226;2022-12-07T11:21:45;99193.97;;;11.16;95.85
22653;BME280;11493;43.344;26.226;2022-12-07T11:24:22;99181.69;;;11.14;95.39
22653;BME280;11493;43.344;26.226;2022-12-07T11:29:47;99182.47;;;11.23;95.39
22653;BME280;11493;43.344;26.226;2022-12-07T11:32:43;99170.16;;;11.20;95.29
22653;BME280;11493;43.344;26.226;2022-12-07T11:38:18;99159.47;;;11.02;97.13
22653;BME280;11493;43.344;26.226;2022-12-07T11:40:59;99141.63;;;10.82;98.08
22653;BME280;11493;43.344;26.226;2022-12-07T11:46:20;99150.06;;;11.03;98.08
22653;BME280;11493;43.344;26.226;2022-12-07T11:52:02;99141.19;;;11.06;97.86
22653;BME280;11493;43.344;26.226;2022-12-07T11:54:38;99135.50;;;11.02;97.15
22653;BME280;11493;43.344;26.226;2022-12-07T11:57:16;99126.09;;;11.03;97.44
22653;BME280;11493;43.344;26.226;2022-12-07T11:59:50;99131.94;;;11.28;96.33
22653;BME280;11493;43.344;26.226;2022-12-07T12:02:25;99123.34;;;11.38;95.76
22653;BME280;11493;43.344;26.226;2022-12-07T12:05:01;99116.19;;;11.54;95.49
22653;BME280;11493;43.344;26.226;2022-12-07T12:07:31;99113.91;;;11.65;95.01
22653;BME280;11493;43.344;26.226;2022-12-07T12:10:25;99114.56;;;11.79;94.27
22653;BME280;11493;43.344;26.226;2022-12-07T12:21:55;99117.56;;;12.41;91.70
22653;BME280;11493;43.344;26.226;2022-12-07T12:24:26;99112.97;;;12.54;91.33
22653;BME280;11493;43.344;26.226;2022-12-07T12:27:03;99117.75;;;12.66;90.71
22653;BME280;11493;43.344;26.226;2022-12-07T12:32:19;99099.03;;;12.71;90.27
22653;BME280;11493;43.344;26.226;2022-12-07T12:42:56;99111.06;;;14.40;82.94
22653;BME280;11493;43.344;26.226;2022-12-07T12:45:26;99092.84;;;14.15;81.94
22653;BME280;11493;43.344;26.226;2022-12-07T12:48:04;99103.91;;;14.27;82.87
22653;BME280;11493;43.344;26.226;2022-12-07T12:50:34;99100.34;;;14.27;81.48
22653;BME280;11493;43.344;26.226;2022-12-07T12:53:23;99095.94;;;14.01;81.90
22653;BME280;11493;43.344;26.226;2022-12-07T12:58:39;99087.97;;;13.55;84.16
22653;BME280;11493;43.344;26.226;2022-12-07T13:03:57;99088.03;;;13.13;86.72
22653;BME280;11493;43.344;26.226;2022-12-07T13:08:57;99092.72;;;12.92;88.91
22653;BME280;11493;43.344;26.226;2022-12-07T13:11:38;99095.56;;;12.83;89.69
22653;BME280;11493;43.344;26.226;2022-12-07T13:20:42;99082.06;;;12.31;93.32
22653;BME280;11493;43.344;26.226;2022-12-07T13:23:10;99080.34;;;12.18;93.64
22653;BME280;11493;43.344;26.226;2022-12-07T13:25:44;99093.19;;;12.14;94.71
22653;BME280;11493;43.344;26.226;2022-12-07T13:28:18;99095.16;;;12.05;95.54
22653;BME280;11493;43.344;26.226;2022-12-07T13:30:58;99101.03;;;11.95;96.31
22653;BME280;11493;43.344;26.226;2022-12-07T13:33:29;99089.44;;;11.80;96.92
22653;BME280;11493;43.344;26.226;2022-12-07T13:35:57;99098.16;;;11.74;97.55
22653;BME280;11493;43.344;26.226;2022-12-07T13:38:30;99089.59;;;11.67;98.11
22653;BME280;11493;43.344;26.226;2022-12-07T13:43:53;99100.00;;;11.52;98.57
22653;BME280;11493;43.344;26.226;2022-12-07T13:46:41;99089.78;;;11.36;98.93
22653;BME280;11493;43.344;26.226;2022-12-07T13:49:25;99094.00;;;11.25;99.59
22653;BME280;11493;43.344;26.226;2022-12-07T13:51:53;99093.69;;;11.17;100.00
22653;BME280;11493;43.344;26.226;2022-12-07T13:54:24;99086.91;;;11.06;100.00
22653;BME280;11493;43.344;26.226;2022-12-07T13:56:52;99087.06;;;11.01;100.00
22653;BME280;11493;43.344;26.226;2022-12-07T13:59:25;99091.75;;;10.92;100.00
22653;BME280;11493;43.344;26.226;2022-12-07T14:01:55;99086.91;;;10.80;100.00
22653;BME280;11493;43.344;26.226;2022-12-07T14:04:35;99084.63;;;10.74;100.00
22653;BME280;11493;43.344;26.226;2022-12-07T14:07:25;99085.72;;;10.64;100.00
22653;BME280;11493;43.344;26.226;2022-12-07T14:10:03;99081.66;;;10.53;100.00
22653;BME280;11493;43.344;26.226;2022-12-07T14:12:42;99078.88;;;10.44;100.00
22653;BME280;11493;43.344;26.226;2022-12-07T14:15:31;99074.84;;;10.33;100.00
22653;BME280;11493;43.344;26.226;2022-12-07T14:18:00;99076.88;;;10.19;100.00
22653;BME280;11493;43.344;26.226;2022-12-07T14:20:39;99081.53;;;10.10;100.00
22653;BME280;11493;43.344;26.226;2022-12-07T14:23:28;99086.34;;;10.04;100.00
22653;BME280;11493;43.344;26.226;2022-12-07T14:26:06;99081.81;;;10.00;100.00
22653;BME280;11493;43.344;26.226;2022-12-07T14:28:36;99064.59;;;9.85;100.00
22653;BME280;11493;43.344;26.226;2022-12-07T14:31:12;99048.69;;;9.65;100.00
22653;BME280;11493;43.344;26.226;2022-12-07T14:33:50;99073.75;;;9.72;100.00
22653;BME280;11493;43.344;26.226;2022-12-07T14:36:19;99069.84;;;9.65;100.00
22653;BME280;11493;43.344;26.226;2022-12-07T14:38:53;99069.50;;;9.58;100.00
22653;BME280;11493;43.344;26.226;2022-12-07T14:41:27;99044.66;;;9.40;100.00
22653;BME280;11493;43.344;26.226;2022-12-07T14:44:13;99063.56;;;9.42;100.00
22653;BME280;11493;43.344;26.226;2022-12-07T14:46:51;99060.78;;;9.33;100.00
22653;BME280;11493;43.344;26.226;2022-12-07T14:49:38;99063.16;;;9.26;100.00
22653;BME280;11493;43.344;26.226;2022-12-07T14:52:13;99070.50;;;9.17;100.00
22653;BME280;11493;43.344;26.226;2022-12-07T14:55:01;99063.50;;;9.11;100.00
22653;BME280;11493;43.344;26.226;2022-12-07T14:57:29;99064.25;;;9.03;100.00
22653;BME280;11493;43.344;26.226;2022-12-07T14:59:56;99064.06;;;8.99;100.00
22653;BME280;11493;43.344;26.226;2022-12-07T15:02:23;99069.16;;;8.92;100.00
22653;BME280;11493;43.344;26.226;2022-12-07T15:04:50;99066.06;;;8.85;100.00
22653;BME280;11493;43.344;26.226;2022-12-07T15:07:19;99068.63;;;8.81;100.00
22653;BME280;11493;43.344;26.226;2022-12-07T15:09:48;99070.06;;;8.79;100.00
22653;BME280;11493;43.344;26.226;2022-12-07T15:12:15;99070.97;;;8.74;100.00
22653;BME280;11493;43.344;26.226;2022-12-07T15:14:43;99066.72;;;8.68;100.00
22653;BME280;11493;43.344;26.226;2022-12-07T15:17:10;99072.03;;;8.65;100.00